Time;durP1;ratioP1;P1;durP2;ratioP2;P2;SDS_P1;SDS_P2;PMS_P1;PMS_P2;Temp;Humidity;BMP_temperature;BMP_pressure;BME280_temperature;BME280_humidity;BME280_pressure;Samples;Min_cycle;Max_cycle;Signal;HPM_P1;HPM_P2
2024/01/01 00:01:41;;;;;;;24.67;10.17;;;;;;;6.24;100.00;99137.69;5056749;28;20091;-79
2024/01/01 00:04:08;;;;;;;17.63;8.05;;;;;;;6.30;100.00;99134.38;5036303;28;20274;-79
2024/01/01 00:06:34;;;;;;;16.15;7.57;;;;;;;6.17;100.00;99142.03;5058105;28;20032;-79
2024/01/01 00:08:59;;;;;;;17.38;7.45;;;;;;;6.24;100.00;99153.59;5067242;28;20043;-79
2024/01/01 00:11:25;;;;;;;22.55;8.98;;;;;;;6.16;100.00;99148.34;5044225;28;20487;-78
2024/01/01 00:13:50;;;;;;;18.00;7.60;;;;;;;5.99;100.00;99113.16;5031214;28;20063;-79
2024/01/01 00:16:16;;;;;;;16.80;6.47;;;;;;;6.20;100.00;99132.91;5037197;28;20043;-79
2024/01/01 00:18:41;;;;;;;14.82;6.93;;;;;;;6.29;100.00;99127.41;5054562;28;20536;-78
2024/01/01 00:21:07;;;;;;;19.98;8.40;;;;;;;6.27;100.00;99102.88;5057859;28;20156;-79
2024/01/01 00:23:33;;;;;;;22.55;8.10;;;;;;;6.09;100.00;99071.38;5092745;28;20767;-79
2024/01/01 00:25:58;;;;;;;18.47;7.43;;;;;;;6.08;100.00;99077.66;5057311;28;20032;-80
2024/01/01 00:28:23;;;;;;;15.77;7.13;;;;;;;6.17;100.00;99114.72;5074291;28;20076;-79
2024/01/01 00:30:49;;;;;;;15.97;7.83;;;;;;;6.26;100.00;99097.78;5057004;28;20768;-79
2024/01/01 00:33:14;;;;;;;20.08;8.70;;;;;;;6.09;100.00;99046.72;5073628;28;20413;-79
2024/01/01 00:35:40;;;;;;;21.40;9.73;;;;;;;6.30;100.00;99077.88;5056972;28;20106;-79
2024/01/01 00:38:05;;;;;;;23.88;8.63;;;;;;;6.13;100.00;99046.19;5073697;28;20486;-78
2024/01/01 00:40:31;;;;;;;16.92;8.18;;;;;;;6.12;100.00;99064.91;5038950;28;20039;-79
2024/01/01 00:42:56;;;;;;;23.33;9.25;;;;;;;6.30;100.00;99068.09;5036857;28;20028;-79
2024/01/01 00:45:22;;;;;;;22.03;8.93;;;;;;;6.19;100.00;99026.09;5037271;28;20017;-82
2024/01/01 00:47:47;;;;;;;20.45;8.57;;;;;;;6.21;100.00;99021.47;5079829;28;20071;-79
2024/01/01 00:50:13;;;;;;;20.23;9.60;;;;;;;6.16;100.00;98999.97;5054612;28;20055;-80
2024/01/01 00:52:38;;;;;;;17.93;9.40;;;;;;;6.26;100.00;99024.41;5053264;28;21087;-83
2024/01/01 00:55:05;;;;;;;19.23;9.80;;;;;;;6.26;100.00;99011.16;5055764;28;20047;-79
2024/01/01 00:57:30;;;;;;;22.88;9.80;;;;;;;6.26;100.00;98984.63;5057328;28;20040;-81
2024/01/01 00:59:55;;;;;;;24.43;10.97;;;;;;;6.13;100.00;98981.75;5037578;28;20404;-79
2024/01/01 01:02:21;;;;;;;21.37;10.83;;;;;;;5.91;100.00;98968.28;5049933;28;20290;-79
2024/01/01 01:04:47;;;;;;;28.33;11.47;;;;;;;6.03;100.00;99010.31;5036292;28;20077;-81
2024/01/01 01:07:13;;;;;;;21.77;11.68;;;;;;;5.96;100.00;99001.41;5056257;28;20617;-81
2024/01/01 01:09:38;;;;;;;28.70;13.13;;;;;;;5.87;100.00;99009.38;5049762;28;20103;-80
2024/01/01 01:12:04;;;;;;;25.75;12.77;;;;;;;6.07;100.00;99054.00;5055686;28;20033;-79
2024/01/01 01:14:29;;;;;;;31.92;13.45;;;;;;;6.00;100.00;99018.63;5056461;28;20030;-79
2024/01/01 01:16:55;;;;;;;28.53;12.13;;;;;;;5.86;100.00;99026.28;5047249;28;20524;-79
2024/01/01 01:19:20;;;;;;;23.90;12.70;;;;;;;5.92;100.00;99044.13;5056720;28;20274;-78
2024/01/01 01:21:45;;;;;;;29.10;12.60;;;;;;;5.97;100.00;99058.69;5053283;28;20032;-79
2024/01/01 01:24:15;;;;;;;21.87;11.30;;;;;;;5.92;100.00;99025.59;5051336;28;20035;-78
2024/01/01 01:26:44;;;;;;;28.42;11.35;;;;;;;6.00;100.00;99037.16;5085603;28;20036;-79
2024/01/01 01:29:11;;;;;;;25.13;10.73;;;;;;;5.75;100.00;99012.59;5053034;28;20032;-78
2024/01/01 01:31:36;;;;;;;24.65;11.57;;;;;;;5.87;100.00;99057.03;5053225;28;20028;-81
2024/01/01 01:34:02;;;;;;;32.53;13.30;;;;;;;5.87;100.00;99058.88;5035173;28;20731;-79
2024/01/01 01:36:27;;;;;;;27.55;12.00;;;;;;;5.85;100.00;99058.22;5031875;28;20692;-79
2024/01/01 01:38:53;;;;;;;32.97;12.02;;;;;;;5.78;100.00;99050.13;5040853;28;20461;-82
2024/01/01 01:41:18;;;;;;;24.00;12.50;;;;;;;5.71;100.00;99054.47;5056257;28;20192;-80
2024/01/01 01:43:44;;;;;;;20.70;10.70;;;;;;;5.75;100.00;99063.72;5036148;28;20282;-78
2024/01/01 01:46:11;;;;;;;25.23;12.17;;;;;;;5.71;100.00;99057.13;5051724;28;20028;-81
2024/01/01 01:48:36;;;;;;;27.58;10.77;;;;;;;5.79;100.00;99065.03;5073328;28;20282;-78
2024/01/01 01:51:02;;;;;;;24.20;12.05;;;;;;;5.81;100.00;99039.22;5072706;28;20692;-78
2024/01/01 01:53:30;;;;;;;18.25;9.63;;;;;;;5.72;100.00;99019.06;5055931;28;20028;-79
2024/01/01 01:55:59;;;;;;;27.40;10.32;;;;;;;5.76;100.00;99038.91;5055886;28;20078;-79
2024/01/01 01:58:24;;;;;;;26.65;11.10;;;;;;;5.72;100.00;99019.06;5056238;28;20024;-78
2024/01/01 02:00:51;;;;;;;19.30;9.88;;;;;;;5.62;100.00;99039.63;5039408;28;20479;-79
2024/01/01 02:03:17;;;;;;;28.52;11.93;;;;;;;5.36;100.00;99032.81;5042210;28;20024;-78
2024/01/01 02:05:43;;;;;;;31.20;14.30;;;;;;;5.45;100.00;99087.31;5036278;28;20801;-81
2024/01/01 02:08:09;;;;;;;30.63;13.45;;;;;;;5.45;100.00;99083.88;5040000;28;20032;-79
2024/01/01 02:10:35;;;;;;;26.52;12.90;;;;;;;5.52;100.00;99076.06;5048298;28;20031;-78
2024/01/01 02:13:00;;;;;;;31.97;15.20;;;;;;;5.30;100.00;99030.81;5054604;28;20046;-78
2024/01/01 02:15:26;;;;;;;32.88;15.23;;;;;;;5.38;100.00;99083.72;5091368;28;20322;-79
2024/01/01 02:17:52;;;;;;;29.83;14.23;;;;;;;5.31;100.00;99061.56;5091043;28;20027;-79
2024/01/01 02:20:17;;;;;;;27.77;13.90;;;;;;;5.41;100.00;99088.69;5056200;28;20060;-79
2024/01/01 02:22:43;;;;;;;28.63;14.27;;;;;;;5.40;100.00;99081.72;5051843;28;20067;-81
2024/01/01 02:25:09;;;;;;;28.50;12.87;;;;;;;5.40;100.00;99079.06;5046369;28;20126;-82
2024/01/01 02:27:36;;;;;;;29.80;14.20;;;;;;;5.48;100.00;99079.06;5048911;28;20270;-78
2024/01/01 02:30:12;;;;;;;29.38;14.95;;;;;;;5.32;100.00;99059.78;5037895;28;20036;-79
2024/01/01 02:32:40;;;;;;;30.13;13.10;;;;;;;5.35;100.00;99089.34;5045429;28;20494;-80
2024/01/01 02:35:08;;;;;;;32.85;14.48;;;;;;;5.20;100.00;99067.25;5067542;28;20024;-78
2024/01/01 02:37:34;;;;;;;25.33;12.32;;;;;;;5.26;100.00;99108.88;5050055;28;20052;-79
2024/01/01 02:40:01;;;;;;;32.13;13.60;;;;;;;5.32;100.00;99137.34;5051244;28;20499;-79
2024/01/01 02:42:27;;;;;;;25.50;12.93;;;;;;;5.41;100.00;99133.69;5068010;28;20111;-78
2024/01/01 02:44:52;;;;;;;27.17;11.73;;;;;;;5.41;100.00;99115.16;5052894;28;20147;-79
2024/01/01 02:47:18;;;;;;;30.48;12.68;;;;;;;5.40;100.00;99110.03;5069816;28;20436;-82
2024/01/01 02:49:43;;;;;;;27.83;13.27;;;;;;;5.47;100.00;99118.94;5050048;28;20036;-81
2024/01/01 02:52:08;;;;;;;32.50;11.20;;;;;;;5.55;100.00;99100.41;5049026;28;20316;-80
2024/01/01 02:54:34;;;;;;;24.10;9.97;;;;;;;5.50;100.00;99087.66;5049444;28;20089;-80
2024/01/01 02:56:59;;;;;;;24.10;10.80;;;;;;;5.47;100.00;99072.09;5032506;28;20033;-78
2024/01/01 02:59:24;;;;;;;25.30;8.87;;;;;;;5.47;100.00;99061.53;5033971;28;20032;-80
2024/01/01 03:01:50;;;;;;;23.30;9.57;;;;;;;5.50;100.00;99063.00;5028336;28;20546;-78
2024/01/01 03:04:15;;;;;;;24.23;10.53;;;;;;;5.47;100.00;99055.41;5041100;28;20263;-78
2024/01/01 03:06:40;;;;;;;23.73;9.70;;;;;;;5.48;100.00;99062.38;5037906;28;20063;-79
2024/01/01 03:09:07;;;;;;;20.90;9.13;;;;;;;5.42;100.00;99049.81;5048711;28;20036;-78
2024/01/01 03:11:33;;;;;;;19.52;9.02;;;;;;;5.41;100.00;99049.00;5032974;28;20035;-80
2024/01/01 03:13:58;;;;;;;18.17;8.17;;;;;;;5.58;100.00;99072.75;5032178;28;20399;-82
2024/01/01 03:16:24;;;;;;;18.07;8.43;;;;;;;5.61;100.00;99056.50;5072096;28;20298;-78
2024/01/01 03:18:49;;;;;;;15.23;7.37;;;;;;;5.58;100.00;99022.44;5049502;28;20115;-79
2024/01/01 03:21:15;;;;;;;22.15;9.90;;;;;;;5.57;100.00;99039.31;5039960;28;20028;-79
2024/01/01 03:23:42;;;;;;;20.58;9.60;;;;;;;5.59;100.00;99037.31;5032633;28;20080;-79
2024/01/01 03:26:08;;;;;;;21.80;9.27;;;;;;;5.62;100.00;99036.97;5051764;28;20409;-81
2024/01/01 03:28:33;;;;;;;19.08;7.93;;;;;;;5.52;100.00;99002.78;5033501;28;20093;-78
2024/01/01 03:31:00;;;;;;;27.07;9.20;;;;;;;5.66;100.00;99033.81;5045618;28;20033;-79
2024/01/01 03:33:26;;;;;;;18.65;9.38;;;;;;;5.54;100.00;99039.66;5048495;28;20483;-78
2024/01/01 03:35:52;;;;;;;17.55;7.38;;;;;;;5.56;100.00;99040.31;5041804;28;20532;-78
2024/01/01 03:38:17;;;;;;;18.50;9.18;;;;;;;5.68;100.00;99049.53;5032312;28;20485;-82
2024/01/01 03:40:43;;;;;;;19.17;9.02;;;;;;;5.80;100.00;99040.19;5049209;28;20384;-81
2024/01/01 03:43:08;;;;;;;20.33;7.57;;;;;;;5.79;100.00;99025.31;5029527;28;20021;-79
2024/01/01 03:45:34;;;;;;;18.30;8.20;;;;;;;5.73;100.00;99002.16;5041670;28;20024;-78
2024/01/01 03:47:59;;;;;;;23.50;8.07;;;;;;;5.80;100.00;99023.50;5055296;28;20043;-80
2024/01/01 03:50:24;;;;;;;14.57;7.93;;;;;;;5.81;100.00;99014.56;5039154;28;20042;-78
2024/01/01 03:52:50;;;;;;;16.07;7.20;;;;;;;5.60;100.00;98999.28;5074910;28;20805;-79
2024/01/01 03:55:15;;;;;;;23.80;8.40;;;;;;;5.59;100.00;99021.44;5064880;28;20278;-79
2024/01/01 03:57:41;;;;;;;23.53;7.93;;;;;;;5.53;100.00;99027.44;5053809;28;20287;-78
2024/01/01 04:00:08;;;;;;;30.35;8.40;;;;;;;5.57;100.00;99065.78;5039342;28;20028;-78
2024/01/01 04:02:34;;;;;;;21.45;8.43;;;;;;;5.70;100.00;99090.72;5079543;28;20032;-80
2024/01/01 04:04:59;;;;;;;23.92;8.50;;;;;;;5.76;100.00;99086.59;5048218;28;20403;-78
2024/01/01 04:07:24;;;;;;;19.73;8.70;;;;;;;5.76;100.00;99091.88;5051841;28;20701;-78
2024/01/01 04:09:50;;;;;;;16.30;7.67;;;;;;;5.65;100.00;99087.78;5052941;28;20028;-82
2024/01/01 04:12:16;;;;;;;16.38;8.02;;;;;;;5.74;100.00;99088.56;5071964;28;20063;-78
2024/01/01 04:14:41;;;;;;;19.38;8.27;;;;;;;5.57;100.00;99066.63;5038025;28;20098;-78
2024/01/01 04:17:07;;;;;;;15.67;7.87;;;;;;;5.70;100.00;99119.03;5055786;28;20029;-78
2024/01/01 04:19:32;;;;;;;28.33;9.43;;;;;;;5.49;100.00;99075.41;5056926;28;20135;-78
2024/01/01 04:21:57;;;;;;;21.67;8.77;;;;;;;5.70;100.00;99124.34;5072819;28;20390;-80
2024/01/01 04:24:23;;;;;;;23.27;9.80;;;;;;;5.60;100.00;99092.75;5057368;28;20612;-81
2024/01/01 04:26:48;;;;;;;17.17;9.50;;;;;;;5.65;100.00;99095.72;5035731;28;20274;-80
2024/01/01 04:29:16;;;;;;;17.13;9.40;;;;;;;5.71;100.00;99086.25;5047713;28;20038;-81
2024/01/01 04:31:41;;;;;;;28.75;9.75;;;;;;;5.56;100.00;99059.69;5079103;28;20044;-79
2024/01/01 04:34:06;;;;;;;17.83;10.32;;;;;;;5.64;100.00;99093.22;5054149;28;20683;-79
2024/01/01 04:36:32;;;;;;;24.73;10.60;;;;;;;5.61;100.00;99075.88;5041882;28;20032;-78
2024/01/01 04:38:57;;;;;;;21.53;8.70;;;;;;;5.56;100.00;99058.84;5035991;28;20583;-78
2024/01/01 04:41:23;;;;;;;30.77;10.70;;;;;;;5.72;100.00;99111.75;5048884;28;20423;-79
2024/01/01 04:43:48;;;;;;;22.98;10.23;;;;;;;5.69;100.00;99075.84;5035668;28;20098;-80
2024/01/01 04:46:13;;;;;;;21.70;11.33;;;;;;;5.66;100.00;99076.16;5055928;28;20036;-78
2024/01/01 04:48:39;;;;;;;24.03;10.80;;;;;;;5.55;100.00;99060.69;5065938;28;20475;-78
2024/01/01 04:51:05;;;;;;;23.33;11.50;;;;;;;5.65;100.00;99108.94;5037561;28;20263;-79
2024/01/01 04:53:30;;;;;;;29.55;12.32;;;;;;;5.74;100.00;99115.06;5054320;28;20540;-78
2024/01/01 04:55:55;;;;;;;22.70;10.07;;;;;;;5.76;100.00;99094.53;5035041;28;20032;-79
2024/01/01 04:58:21;;;;;;;24.97;11.60;;;;;;;5.85;100.00;99085.56;5031690;28;20135;-78
2024/01/01 05:00:46;;;;;;;21.43;10.37;;;;;;;5.81;100.00;99073.66;5046813;28;20063;-79
2024/01/01 05:03:12;;;;;;;28.33;13.55;;;;;;;5.82;100.00;99070.00;5054041;28;20274;-78
2024/01/01 05:05:37;;;;;;;25.93;11.07;;;;;;;5.88;100.00;99071.13;5072101;28;20032;-78
2024/01/01 05:08:03;;;;;;;26.93;11.47;;;;;;;5.64;100.00;99053.50;5055468;28;20028;-80
2024/01/01 05:10:28;;;;;;;26.30;12.30;;;;;;;5.70;100.00;99074.03;5090256;28;20067;-78
2024/01/01 05:12:53;;;;;;;22.43;11.33;;;;;;;5.69;100.00;99080.31;5055012;28;20067;-79
2024/01/01 05:15:19;;;;;;;22.77;10.38;;;;;;;5.78;100.00;99081.91;5089981;28;20686;-79
2024/01/01 05:17:44;;;;;;;21.83;11.13;;;;;;;5.84;100.00;99093.66;5055351;28;20047;-78
2024/01/01 05:20:10;;;;;;;24.98;12.90;;;;;;;5.74;100.00;99077.97;5053073;28;20021;-78
2024/01/01 05:22:35;;;;;;;21.55;11.30;;;;;;;5.73;100.00;99084.25;5055502;28;20070;-78
2024/01/01 05:25:01;;;;;;;25.23;11.07;;;;;;;5.79;100.00;99080.94;5036070;28;20117;-79
2024/01/01 05:27:26;;;;;;;27.47;11.60;;;;;;;5.80;100.00;99068.50;5072133;28;20034;-78
2024/01/01 05:29:51;;;;;;;23.63;11.87;;;;;;;5.65;100.00;99079.00;5051711;28;20293;-79
2024/01/01 05:32:17;;;;;;;23.57;10.57;;;;;;;5.79;100.00;99101.31;5064408;28;20077;-79
2024/01/01 05:34:42;;;;;;;23.20;10.63;;;;;;;5.65;100.00;99084.31;5038695;28;20056;-78
2024/01/01 05:37:08;;;;;;;26.38;11.20;;;;;;;5.59;100.00;99122.03;5034554;28;20805;-79
2024/01/01 05:39:34;;;;;;;28.05;11.68;;;;;;;5.77;100.00;99149.13;5051620;28;20040;-78
2024/01/01 05:42:00;;;;;;;29.27;13.07;;;;;;;5.63;100.00;99136.59;5052085;28;20066;-78
2024/01/01 05:44:25;;;;;;;23.30;11.30;;;;;;;5.65;100.00;99148.66;5058440;28;20085;-79
2024/01/01 05:46:50;;;;;;;24.23;10.15;;;;;;;5.56;100.00;99136.44;5033252;28;20029;-78
2024/01/01 05:49:17;;;;;;;31.13;12.10;;;;;;;5.62;100.00;99166.69;5051462;28;20062;-79
2024/01/01 05:51:43;;;;;;;25.52;10.52;;;;;;;5.72;100.00;99183.25;5051535;28;20106;-80
2024/01/01 05:54:08;;;;;;;25.80;10.70;;;;;;;5.75;100.00;99169.66;5050908;28;20028;-79
2024/01/01 05:56:34;;;;;;;23.08;12.00;;;;;;;5.81;100.00;99163.69;5050403;28;20028;-79
2024/01/01 05:58:59;;;;;;;22.97;11.50;;;;;;;5.75;100.00;99137.88;5034409;28;20033;-79
2024/01/01 06:01:25;;;;;;;27.65;12.20;;;;;;;5.86;100.00;99134.88;5034081;28;20032;-78
2024/01/01 06:03:50;;;;;;;23.77;10.07;;;;;;;5.82;100.00;99136.19;5050699;28;20105;-78
2024/01/01 06:06:16;;;;;;;24.77;12.38;;;;;;;5.78;100.00;99140.19;5037337;28;20024;-78
2024/01/01 06:08:41;;;;;;;24.87;10.33;;;;;;;5.89;100.00;99155.69;5051309;28;20028;-78
2024/01/01 06:11:06;;;;;;;22.30;10.87;;;;;;;5.88;100.00;99127.59;5034707;28;20314;-78
2024/01/01 06:13:32;;;;;;;22.07;10.13;;;;;;;5.79;100.00;99123.31;5078581;28;20024;-78
2024/01/01 06:15:58;;;;;;;26.33;10.67;;;;;;;5.71;100.00;99142.72;5034012;28;20064;-79
2024/01/01 06:18:25;;;;;;;31.98;11.98;;;;;;;5.58;100.00;99139.75;5033983;28;20721;-78
2024/01/01 06:20:50;;;;;;;21.95;9.93;;;;;;;5.82;100.00;99181.22;5034354;28;20044;-78
2024/01/01 06:23:16;;;;;;;22.48;9.70;;;;;;;5.95;100.00;99182.53;5050345;28;20028;-79
2024/01/01 06:25:41;;;;;;;17.88;10.35;;;;;;;5.92;100.00;99141.28;5030879;28;20028;-79
2024/01/01 06:28:06;;;;;;;20.63;9.53;;;;;;;5.69;100.00;99128.00;5051866;28;20131;-79
2024/01/01 06:30:34;;;;;;;22.90;9.60;;;;;;;5.74;100.00;99130.94;5034030;28;20032;-78
2024/01/01 06:33:01;;;;;;;25.70;10.23;;;;;;;5.80;100.00;99156.72;5050985;28;20032;-79
2024/01/01 06:35:30;;;;;;;21.80;9.52;;;;;;;5.86;100.00;99161.34;5041136;28;20040;-79
2024/01/01 06:37:55;;;;;;;23.42;10.13;;;;;;;5.74;100.00;99136.25;5050414;28;20028;-79
2024/01/01 06:40:21;;;;;;;22.30;9.02;;;;;;;5.67;100.00;99143.22;5053206;28;20096;-79
2024/01/01 06:42:46;;;;;;;24.60;9.63;;;;;;;5.93;100.00;99185.34;5046194;28;20036;-78
2024/01/01 06:45:14;;;;;;;19.77;9.43;;;;;;;5.99;100.00;99171.44;5087178;28;20028;-80
2024/01/01 06:47:39;;;;;;;24.27;10.25;;;;;;;5.86;100.00;99134.03;5070177;28;20106;-79
2024/01/01 06:50:05;;;;;;;27.50;10.73;;;;;;;5.90;100.00;99149.44;5042818;28;20031;-78
2024/01/01 06:52:30;;;;;;;25.45;10.07;;;;;;;5.90;100.00;99136.19;5043661;28;20040;-79
2024/01/01 06:54:55;;;;;;;25.63;10.43;;;;;;;6.11;100.00;99142.72;5084364;28;20414;-79
2024/01/01 06:57:21;;;;;;;19.00;9.60;;;;;;;6.20;100.00;99119.66;5041706;28;20290;-78
2024/01/01 06:59:46;;;;;;;18.87;9.90;;;;;;;6.03;100.00;99089.78;5050244;28;20043;-79
2024/01/01 07:02:12;;;;;;;24.43;11.23;;;;;;;6.00;100.00;99090.16;5051991;28;20035;-79
2024/01/01 07:04:37;;;;;;;21.13;10.68;;;;;;;6.01;100.00;99067.94;5055709;28;20028;-78
2024/01/01 07:07:03;;;;;;;20.93;9.23;;;;;;;6.09;100.00;99099.72;5034285;28;20041;-80
2024/01/01 07:09:28;;;;;;;24.20;10.82;;;;;;;6.06;100.00;99084.13;5053371;28;20295;-78
2024/01/01 07:11:57;;;;;;;19.50;9.15;;;;;;;6.16;100.00;99086.56;5044960;28;20072;-79
2024/01/01 07:14:22;;;;;;;26.15;9.70;;;;;;;6.13;100.00;99070.03;5025317;28;20024;-80
2024/01/01 07:16:51;;;;;;;24.73;10.35;;;;;;;6.20;100.00;99067.50;5049874;28;20509;-79
2024/01/01 07:19:17;;;;;;;23.55;9.63;;;;;;;6.18;100.00;99058.91;5052696;28;20016;-79
2024/01/01 07:21:42;;;;;;;34.27;11.63;;;;;;;6.21;100.00;99058.56;5036484;28;20041;-80
2024/01/01 07:24:08;;;;;;;20.63;9.18;;;;;;;6.23;100.00;99051.25;5043381;28;20819;-80
2024/01/01 07:26:33;;;;;;;20.93;10.00;;;;;;;6.22;100.00;99036.34;5057161;28;20032;-79
2024/01/01 07:28:58;;;;;;;16.93;9.00;;;;;;;6.16;100.00;99028.25;5092101;28;20024;-79
2024/01/01 07:31:25;;;;;;;17.13;7.97;;;;;;;6.25;100.00;99043.13;5061720;28;20310;-78
2024/01/01 07:33:50;;;;;;;24.50;8.18;;;;;;;6.04;100.00;99019.91;5053535;28;20039;-78
2024/01/01 07:36:15;;;;;;;17.00;8.63;;;;;;;6.09;100.00;99036.13;5040238;28;20028;-79
2024/01/01 07:38:41;;;;;;;14.37;6.90;;;;;;;6.17;100.00;99035.22;5068852;28;20297;-79
2024/01/01 07:41:07;;;;;;;14.15;7.47;;;;;;;6.20;100.00;99045.47;5090571;28;20024;-78
2024/01/01 07:43:32;;;;;;;22.50;7.83;;;;;;;6.34;100.00;99036.75;5055442;28;20031;-79
2024/01/01 07:45:58;;;;;;;17.67;7.47;;;;;;;6.27;100.00;99010.13;5054777;28;20263;-81
2024/01/01 07:48:23;;;;;;;17.05;7.75;;;;;;;6.24;100.00;99030.88;5054320;28;20032;-79
2024/01/01 07:50:48;;;;;;;20.33;8.57;;;;;;;6.08;100.00;99006.13;5053776;28;20036;-78
2024/01/01 07:53:14;;;;;;;19.03;8.80;;;;;;;6.16;100.00;99030.91;5081694;28;20695;-79
2024/01/01 07:55:39;;;;;;;14.73;6.63;;;;;;;6.16;100.00;99034.41;5042627;28;20032;-79
2024/01/01 07:58:05;;;;;;;21.10;7.05;;;;;;;6.19;100.00;99038.53;5056270;28;20028;-79
2024/01/01 08:00:30;;;;;;;13.68;6.50;;;;;;;6.39;100.00;99025.63;5056724;28;20585;-79
2024/01/01 08:02:56;;;;;;;13.87;6.53;;;;;;;6.37;100.00;99012.56;5085585;28;20032;-79
2024/01/01 08:05:21;;;;;;;15.20;5.72;;;;;;;6.22;100.00;98975.38;5055789;28;20047;-78
2024/01/01 08:07:47;;;;;;;16.03;6.63;;;;;;;6.29;100.00;98996.72;5037421;28;20028;-79
2024/01/01 08:10:17;;;;;;;14.32;6.18;;;;;;;6.39;100.00;99004.41;5037404;28;20062;-78
2024/01/01 08:12:43;;;;;;;16.00;5.97;;;;;;;6.49;100.00;98989.09;5058023;28;20039;-79
2024/01/01 08:15:08;;;;;;;15.23;5.78;;;;;;;6.34;100.00;98963.38;5079655;28;20020;-78
2024/01/01 08:17:34;;;;;;;14.95;5.75;;;;;;;6.31;100.00;98981.47;5045292;28;20047;-79
2024/01/01 08:19:59;;;;;;;17.95;6.05;;;;;;;6.29;100.00;98971.03;5051503;28;20113;-79
2024/01/01 08:22:25;;;;;;;13.80;6.00;;;;;;;6.41;100.00;98975.91;5033380;28;20499;-78
2024/01/01 08:24:50;;;;;;;16.97;7.13;;;;;;;6.43;100.00;98976.56;5034592;28;20550;-78
2024/01/01 08:27:15;;;;;;;16.67;5.97;;;;;;;6.43;100.00;98972.06;5039066;28;20286;-80
2024/01/01 08:29:41;;;;;;;22.83;7.53;;;;;;;6.21;100.00;98955.22;5053517;28;20036;-78
2024/01/01 08:32:07;;;;;;;19.85;6.97;;;;;;;6.44;100.00;99000.25;5053705;28;21122;-79
2024/01/01 08:34:32;;;;;;;15.80;7.67;;;;;;;6.34;100.00;98997.84;5036926;28;20028;-80
2024/01/01 08:37:01;;;;;;;10.63;5.05;;;;;;;6.36;100.00;98978.28;5036063;28;20809;-80
2024/01/01 08:39:29;;;;;;;17.90;6.63;;;;;;;6.32;100.00;98970.69;5047646;28;20117;-79
2024/01/01 08:41:55;;;;;;;13.95;6.13;;;;;;;6.27;100.00;99047.22;5052638;28;20387;-79
2024/01/01 08:44:20;;;;;;;11.87;5.23;;;;;;;6.18;100.00;99040.38;5072846;28;20024;-79
2024/01/01 08:46:45;;;;;;;12.73;5.57;;;;;;;6.18;100.00;99052.75;5052875;28;20270;-80
2024/01/01 08:49:11;;;;;;;15.13;6.40;;;;;;;6.12;100.00;99038.41;5037151;28;20037;-79
2024/01/01 08:51:36;;;;;;;17.10;6.20;;;;;;;6.05;100.00;99026.88;5065947;28;20030;-79
2024/01/01 08:54:07;;;;;;;9.00;4.40;;;;;;;6.24;100.00;99084.69;5034097;28;20352;-79
2024/01/01 08:56:32;;;;;;;14.73;4.97;;;;;;;6.14;100.00;99054.97;5039245;28;20033;-79
2024/01/01 08:58:58;;;;;;;11.60;4.32;;;;;;;6.15;100.00;99075.16;5049996;28;20027;-79
2024/01/01 09:01:23;;;;;;;10.20;5.40;;;;;;;6.23;100.00;99088.34;5038630;28;20098;-78
2024/01/01 09:03:48;;;;;;;15.23;4.70;;;;;;;6.42;100.00;99110.13;5050289;28;20760;-78
2024/01/01 09:06:14;;;;;;;10.73;4.47;;;;;;;6.14;100.00;99054.97;5060502;28;20097;-79
2024/01/01 09:08:39;;;;;;;12.30;4.60;;;;;;;6.23;100.00;99096.31;5064552;28;20028;-78
2024/01/01 09:11:05;;;;;;;9.67;4.73;;;;;;;6.41;100.00;99127.81;5036451;28;20275;-79
2024/01/01 09:13:31;;;;;;;13.00;4.55;;;;;;;6.49;100.00;99132.28;5055556;28;20029;-79
2024/01/01 09:15:56;;;;;;;13.40;4.97;;;;;;;6.37;100.00;99112.44;5050570;28;20029;-79
2024/01/01 09:18:21;;;;;;;9.70;4.47;;;;;;;6.52;100.00;99139.88;5068030;28;21140;-78
2024/01/01 09:20:47;;;;;;;11.17;5.00;;;;;;;6.43;100.00;99125.00;5052741;28;20071;-79
2024/01/01 09:23:13;;;;;;;8.50;4.20;;;;;;;6.34;100.00;99148.94;5035992;28;20028;-79
2024/01/01 09:25:42;;;;;;;11.38;4.07;;;;;;;6.52;100.00;99177.00;5049362;28;20055;-79
2024/01/01 09:28:07;;;;;;;13.75;4.63;;;;;;;6.51;100.00;99156.78;5049763;28;20035;-79
2024/01/01 09:30:33;;;;;;;10.48;3.92;;;;;;;6.31;100.00;99127.22;5049820;28;20038;-79
2024/01/01 09:32:58;;;;;;;10.57;4.17;;;;;;;6.25;100.00;99160.56;5046174;28;20062;-79
2024/01/01 09:35:24;;;;;;;11.33;3.97;;;;;;;6.26;100.00;99186.06;5043504;28;20029;-78
2024/01/01 09:37:53;;;;;;;19.40;5.35;;;;;;;6.40;100.00;99194.28;5048772;28;20040;-79
2024/01/01 09:40:20;;;;;;;12.93;4.38;;;;;;;6.59;100.00;99219.53;5063287;28;20036;-79
2024/01/01 09:42:50;;;;;;;11.65;4.32;;;;;;;6.38;100.00;99164.47;5065130;28;20032;-79
2024/01/01 09:45:15;;;;;;;8.82;3.70;;;;;;;6.51;100.00;99183.31;5044721;28;20024;-79
2024/01/01 09:47:41;;;;;;;17.90;5.05;;;;;;;6.54;100.00;99188.25;5033780;28;20669;-80
2024/01/01 09:50:07;;;;;;;18.40;5.82;;;;;;;6.48;100.00;99223.41;5051251;28;20115;-80
2024/01/01 09:52:33;;;;;;;11.80;4.28;;;;;;;6.35;100.00;99245.19;5043985;28;20058;-80
2024/01/01 09:54:58;;;;;;;10.00;5.15;;;;;;;6.34;100.00;99265.56;5048233;28;20069;-80
2024/01/01 09:57:24;;;;;;;19.43;5.20;;;;;;;6.42;100.00;99322.19;5060837;28;20028;-80
2024/01/01 09:59:50;;;;;;;14.37;4.90;;;;;;;6.31;100.00;99321.53;5034042;28;20502;-79
2024/01/01 10:02:15;;;;;;;9.05;4.28;;;;;;;6.43;100.00;99358.31;5037381;28;20654;-79
2024/01/01 10:04:40;;;;;;;12.90;4.23;;;;;;;6.44;100.00;99359.94;5045457;28;20502;-79
2024/01/01 10:07:06;;;;;;;14.23;4.30;;;;;;;6.36;100.00;99366.09;5032956;28;20376;-80
2024/01/01 10:09:32;;;;;;;11.90;4.72;;;;;;;6.40;100.00;99390.47;5029347;28;20142;-79
2024/01/01 10:12:11;;;;;;;13.57;4.18;;;;;;;6.27;100.00;99406.88;5048336;28;20040;-79
2024/01/01 10:14:47;;;;;;;11.23;4.22;;;;;;;6.41;100.00;99427.41;5047237;28;20497;-79
2024/01/01 10:17:14;;;;;;;9.75;3.80;;;;;;;6.44;100.00;99461.53;5046905;28;20036;-78
2024/01/01 10:19:56;;;;;;;10.88;4.60;;;;;;;6.24;100.00;99439.03;5049721;28;20044;-80
2024/01/01 10:22:23;;;;;;;13.02;4.90;;;;;;;6.38;100.00;99478.09;5036152;28;20044;-78
2024/01/01 10:24:55;;;;;;;14.32;4.43;;;;;;;6.17;100.00;99480.44;5069443;28;20123;-78
2024/01/01 10:27:22;;;;;;;18.13;4.53;;;;;;;6.21;100.00;99505.63;5033531;28;20513;-80
2024/01/01 10:29:47;;;;;;;14.18;5.20;;;;;;;6.36;100.00;99521.69;5072860;28;20036;-78
2024/01/01 10:32:15;;;;;;;16.58;4.45;;;;;;;6.18;100.00;99512.06;5055944;28;20109;-80
2024/01/01 10:34:41;;;;;;;9.00;3.90;;;;;;;5.97;100.00;99520.50;5045483;28;20036;-80
2024/01/01 10:37:08;;;;;;;9.90;4.00;;;;;;;6.23;100.00;99546.88;5039757;28;20032;-80
2024/01/01 10:39:36;;;;;;;6.32;2.95;;;;;;;5.94;100.00;99486.34;5053726;28;20048;-80
2024/01/01 10:42:02;;;;;;;7.85;2.47;;;;;;;6.09;100.00;99500.63;5027968;28;20396;-80
2024/01/01 10:44:28;;;;;;;;;;;;;;;5.96;100.00;99435.88;5048420;28;20093;-80
2024/01/01 10:46:56;;;;;;;7.43;2.70;;;;;;;5.97;100.00;99443.66;5043424;28;20395;-80
2024/01/01 10:49:27;;;;;;;5.65;2.03;;;;;;;5.83;100.00;99421.28;5048970;28;20051;-79
2024/01/01 10:52:28;;;;;;;4.70;2.10;;;;;;;5.83;100.00;99447.75;5041681;28;20036;-79
2024/01/01 10:55:09;;;;;;;6.75;1.83;;;;;;;5.83;100.00;99437.16;5054210;28;20042;-79
2024/01/01 10:58:07;;;;;;;7.75;1.98;;;;;;;5.81;100.00;99438.31;5069073;28;20028;-79
2024/01/01 11:00:45;;;;;;;4.97;2.00;;;;;;;5.85;100.00;99445.78;5034482;28;20039;-79
2024/01/01 11:03:14;;;;;;;5.63;2.00;;;;;;;5.70;100.00;99442.09;5031858;28;20033;-78
2024/01/01 11:05:40;;;;;;;3.90;2.03;;;;;;;5.74;100.00;99483.16;5044273;28;20062;-77
2024/01/01 11:08:06;;;;;;;6.00;1.80;;;;;;;5.65;100.00;99468.25;5034052;28;20032;-78
2024/01/01 11:10:38;;;;;;;5.55;1.95;;;;;;;5.76;100.00;99483.84;5055661;28;20024;-80
2024/01/01 11:13:05;;;;;;;4.47;1.52;;;;;;;5.91;100.00;99492.78;5033211;28;20037;-79
2024/01/01 11:15:39;;;;;;;5.88;1.75;;;;;;;5.85;100.00;99460.81;5037870;28;20040;-79
2024/01/01 11:18:40;;;;;;;10.18;2.38;;;;;;;5.68;100.00;99478.50;5046200;28;20032;-80
2024/01/01 11:21:06;;;;;;;7.95;1.95;;;;;;;5.82;100.00;99493.75;5063457;28;20062;-81